Time;durP1;ratioP1;P1;durP2;ratioP2;P2;SDS_P1;SDS_P2;PMS_P1;PMS_P2;Temp;Humidity;BMP_temperature;BMP_pressure;BME280_temperature;BME280_humidity;BME280_pressure;Samples;Min_cycle;Max_cycle;Signal;HPM_P1;HPM_P2
2023/01/26 00:00:29;;;;;;;;;6.00;5.00;;;;;4.66;76.58;101418.44;5017503;28;45683;-71
2023/01/26 00:02:55;;;;;;;;;15.50;13.25;;;;;4.68;76.63;101413.38;5016964;28;45635;-70
2023/01/26 00:05:20;;;;;;;;;20.75;17.00;;;;;4.55;76.57;101381.47;5017394;28;45849;-70
2023/01/26 00:07:46;;;;;;;;;33.75;29.50;;;;;4.73;76.33;101407.69;5017215;28;45439;-69
2023/01/26 00:10:11;;;;;;;;;18.50;15.75;;;;;4.68;76.67;101401.34;5018026;28;45391;-70
2023/01/26 00:12:37;;;;;;;;;17.75;14.50;;;;;4.38;77.20;101356.19;5029885;28;45558;-70
2023/01/26 00:15:03;;;;;;;;;12.75;9.75;;;;;4.65;76.83;101387.28;5017097;28;45773;-70
2023/01/26 00:17:29;;;;;;;;;18.00;13.50;;;;;4.67;76.95;101396.94;5016721;28;45613;-71
2023/01/26 00:19:56;;;;;;;;;13.25;10.75;;;;;4.68;77.21;101397.84;5017423;28;45457;-71
2023/01/26 00:22:24;;;;;;;;;12.75;11.00;;;;;4.70;76.65;101388.50;5016902;28;45397;-68
2023/01/26 00:24:50;;;;;;;;;10.75;9.50;;;;;4.66;77.23;101386.50;5016935;28;45566;-70
2023/01/26 00:27:15;;;;;;;;;9.50;4.50;;;;;4.65;76.86;101388.16;5016794;28;45579;-69
2023/01/26 00:29:41;;;;;;;;;10.25;10.25;;;;;4.68;77.27;101382.31;5017774;28;45476;-70
2023/01/26 00:32:06;;;;;;;;;10.50;9.00;;;;;4.74;76.98;101387.91;4999536;28;46464;-69
2023/01/26 00:34:32;;;;;;;;;9.00;9.00;;;;;4.75;77.01;101376.75;5012533;28;45989;-69
2023/01/26 00:36:57;;;;;;;;;14.00;10.00;;;;;4.76;76.50;101386.31;5017170;28;45320;-70
2023/01/26 00:39:23;;;;;;;;;13.50;10.50;;;;;4.72;77.13;101381.72;5002000;28;45396;-70
2023/01/26 00:42:08;;;;;;;;;12.25;10.75;;;;;4.63;76.81;101375.94;5017431;28;45742;-71
2023/01/26 00:44:37;;;;;;;;;13.00;10.00;;;;;4.52;76.91;101350.22;5004219;28;45550;-70
2023/01/26 00:47:05;;;;;;;;;11.00;7.50;;;;;4.63;77.12;101366.47;5016702;28;45561;-69
2023/01/26 00:49:30;;;;;;;;;10.75;10.50;;;;;4.36;76.88;101312.09;5017035;28;45482;-70
2023/01/26 00:51:56;;;;;;;;;14.50;10.75;;;;;4.68;77.14;101364.22;5016504;28;45952;-71
2023/01/26 00:54:21;;;;;;;;;12.00;9.00;;;;;4.71;77.16;101364.41;5016353;28;46209;-71
2023/01/26 00:56:47;;;;;;;;;17.75;13.00;;;;;4.71;77.05;101357.50;5016640;28;45484;-71
2023/01/26 00:59:12;;;;;;;;;14.00;10.75;;;;;4.72;77.04;101354.16;5017286;28;45468;-71
2023/01/26 01:01:38;;;;;;;;;12.25;9.00;;;;;4.72;77.04;101342.91;5011029;28;45503;-71
2023/01/26 01:04:03;;;;;;;;;9.75;8.00;;;;;4.71;76.91;101341.09;4998940;28;45451;-70
2023/01/26 01:06:29;;;;;;;;;10.00;10.00;;;;;4.75;76.91;101337.91;5015826;28;45460;-71
2023/01/26 01:08:54;;;;;;;;;9.75;9.00;;;;;4.59;76.76;101304.94;5016665;28;45492;-71
2023/01/26 01:11:20;;;;;;;;;14.75;13.75;;;;;4.74;76.51;101328.38;5016465;28;45529;-71
2023/01/26 01:13:45;;;;;;;;;9.50;9.00;;;;;4.54;76.50;101288.25;5015927;28;46080;-71
2023/01/26 01:16:15;;;;;;;;;11.25;10.00;;;;;4.71;76.41;101316.09;5016374;28;45343;-70
2023/01/26 01:18:41;;;;;;;;;14.75;12.25;;;;;4.73;77.10;101318.81;5016424;28;45216;-71
2023/01/26 01:21:10;;;;;;;;;16.75;15.25;;;;;4.71;76.97;101308.34;5016772;28;45413;-70
2023/01/26 01:23:36;;;;;;;;;10.25;10.00;;;;;4.70;76.79;101301.38;5015613;28;46317;-70
2023/01/26 01:26:03;;;;;;;;;12.25;12.25;;;;;4.71;76.72;101303.16;5015979;28;45424;-71
2023/01/26 01:28:28;;;;;;;;;9.75;9.50;;;;;4.49;76.67;101261.16;5016072;28;45525;-71
2023/01/26 01:30:54;;;;;;;;;14.00;13.75;;;;;4.56;76.76;101259.06;5016542;28;45559;-70
2023/01/26 01:33:21;;;;;;;;;14.00;11.00;;;;;4.75;76.73;101302.56;5016044;28;45624;-71
2023/01/26 01:36:01;;;;;;;;;12.00;11.00;;;;;4.75;76.86;101302.56;5016243;28;45293;-70
2023/01/26 01:38:27;;;;;;;;;13.00;9.00;;;;;4.70;76.11;101288.44;5015894;28;45616;-70
2023/01/26 01:40:54;;;;;;;;;12.25;10.75;;;;;4.72;76.89;101291.13;5016553;28;45378;-69
2023/01/26 01:43:21;;;;;;;;;12.25;11.00;;;;;4.72;76.43;101294.63;5016911;28;45724;-72
2023/01/26 01:45:48;;;;;;;;;13.00;7.50;;;;;4.74;76.58;101284.38;5016525;28;45173;-71
2023/01/26 01:48:18;;;;;;;;;13.75;10.00;;;;;4.75;76.47;101284.44;5016202;28;45840;-70
2023/01/26 01:50:44;;;;;;;;;13.25;9.50;;;;;4.72;76.12;101288.56;5015383;28;45645;-71
2023/01/26 01:53:17;;;;;;;;;12.00;10.50;;;;;4.75;76.08;101286.16;5015523;28;45385;-71
2023/01/26 01:55:44;;;;;;;;;9.75;7.00;;;;;4.74;75.99;101285.25;5015670;28;45339;-69
2023/01/26 01:58:10;;;;;;;;;8.00;7.50;;;;;4.75;76.76;101283.56;5015647;28;45695;-69
2023/01/26 02:00:36;;;;;;;;;13.00;10.00;;;;;4.54;76.76;101245.13;4998605;28;45486;-70
2023/01/26 02:03:10;;;;;;;;;10.00;8.00;;;;;4.74;76.49;101276.59;5014764;28;46186;-70
2023/01/26 02:05:53;;;;;;;;;12.75;11.00;;;;;4.74;76.50;101281.78;5030955;28;45484;-70
2023/01/26 02:08:23;;;;;;;;;9.25;9.00;;;;;4.67;76.51;101277.00;5015430;28;45453;-71
2023/01/26 02:10:53;;;;;;;;;10.50;9.00;;;;;4.53;76.68;101248.50;5010561;28;45483;-69
2023/01/26 02:13:19;;;;;;;;;14.75;12.50;;;;;4.67;76.83;101272.69;5005926;28;45440;-69
2023/01/26 02:15:45;;;;;;;;;11.00;7.50;;;;;4.67;76.56;101277.00;5015485;28;45281;-69
2023/01/26 02:18:11;;;;;;;;;9.75;9.25;;;;;4.62;76.99;101265.47;5017496;28;45544;-70
2023/01/26 02:20:49;;;;;;;;;13.75;10.75;;;;;4.70;76.41;101283.28;5019038;28;45375;-70
2023/01/26 02:23:33;;;;;;;;;10.50;8.50;;;;;4.69;76.84;101284.06;5018896;28;45641;-71
2023/01/26 02:26:21;;;;;;;;;9.25;7.50;;;;;4.72;77.13;101275.63;5018380;28;45411;-71
2023/01/26 02:28:47;;;;;;;;;9.00;7.00;;;;;4.71;76.75;101277.28;5019163;28;45868;-70
2023/01/26 02:31:14;;;;;;;;;9.00;6.00;;;;;4.71;76.42;101279.88;5019149;28;45424;-70
2023/01/26 02:33:40;;;;;;;;;10.00;9.75;;;;;4.65;76.63;101284.66;5017760;28;47074;-69
2023/01/26 02:36:07;;;;;;;;;10.50;9.50;;;;;4.62;77.01;101276.69;5018955;28;45391;-70
2023/01/26 02:38:44;;;;;;;;;11.00;9.75;;;;;4.61;76.63;101268.81;5018179;28;45395;-70
2023/01/26 02:43:59;;;;;;;;;9.25;8.50;;;;;4.61;77.13;101261.94;5018788;28;45520;-70
2023/01/26 02:46:25;;;;;;;;;12.50;10.25;;;;;4.41;76.89;101227.00;5018607;28;45622;-70
2023/01/26 02:51:34;;;;;;;;;16.75;13.00;;;;;4.63;77.13;101256.88;5018508;28;45619;-69
2023/01/26 02:54:00;;;;;;;;;11.00;10.50;;;;;4.63;77.00;101254.28;5018259;28;46118;-70
2023/01/26 02:56:25;;;;;;;;;14.25;10.00;;;;;4.62;77.57;101242.16;5018509;28;45189;-70
2023/01/26 02:58:51;;;;;;;;;12.00;11.75;;;;;4.62;77.46;101242.16;5018733;28;45213;-69
2023/01/26 03:01:16;;;;;;;;;10.00;8.00;;;;;4.61;77.75;101241.25;5015910;28;45636;-70
2023/01/26 03:03:43;;;;;;;;;12.00;9.75;;;;;4.63;77.44;101244.84;5009255;28;45813;-69
2023/01/26 03:06:11;;;;;;;;;13.00;10.75;;;;;4.40;77.57;101191.63;5018419;28;45414;-70
2023/01/26 03:08:37;;;;;;;;;12.50;10.00;;;;;4.56;77.53;101228.03;5018029;28;45478;-70
2023/01/26 03:11:04;;;;;;;;;14.00;12.75;;;;;4.64;77.72;101225.06;5018141;28;45284;-68
2023/01/26 03:13:30;;;;;;;;;9.75;9.00;;;;;4.61;77.61;101220.56;5018506;28;45492;-68
2023/01/26 03:16:01;;;;;;;;;11.50;9.50;;;;;4.70;77.69;101228.03;5018024;28;45360;-69
2023/01/26 03:29:29;;;;;;;;;37.50;34.25;;;;;4.68;77.63;101196.88;5017222;28;45427;-70
2023/01/26 03:31:55;;;;;;;;;7.25;7.25;;;;;4.51;77.29;101176.78;5018790;28;45344;-69
2023/01/26 03:34:20;;;;;;;;;10.75;9.25;;;;;4.68;76.74;101195.97;5017203;28;45468;-69
2023/01/26 03:36:49;;;;;;;;;9.75;8.00;;;;;4.67;77.26;101189.88;5018287;28;45758;-69
2023/01/26 03:58:23;;;;;;;;;8.00;8.00;;;;;4.72;77.07;101143.63;5017506;28;45545;-71
2023/01/26 04:00:49;;;;;;;;;13.25;11.00;;;;;4.73;77.26;101137.63;5017690;28;45519;-70
2023/01/26 04:08:45;;;;;;;;;7.00;6.75;;;;;4.64;77.74;101119.84;5017416;28;45382;-70
2023/01/26 04:11:11;;;;;;;;;9.25;7.50;;;;;4.63;77.39;101104.19;5017531;28;45410;-68
2023/01/26 04:21:48;;;;;;;;;7.00;6.25;;;;;4.66;77.21;101094.06;5017050;28;45392;-71
2023/01/26 04:24:14;;;;;;;;;8.00;6.50;;;;;4.66;77.09;101099.25;5017418;28;45344;-70
2023/01/26 04:26:41;;;;;;;;;4.75;4.50;;;;;4.66;77.44;101100.13;5017218;28;45644;-70
2023/01/26 04:29:12;;;;;;;;;4.50;4.50;;;;;4.67;77.11;101098.41;5017301;28;45304;-69
2023/01/26 04:31:40;;;;;;;;;7.50;6.00;;;;;4.64;76.92;101088.78;5007179;28;45396;-69
2023/01/26 04:34:09;;;;;;;;;5.00;5.00;;;;;4.72;77.57;101104.78;5017079;28;45593;-70
2023/01/26 04:36:34;;;;;;;;;11.00;10.00;;;;;4.71;77.32;101095.22;5001668;28;46190;-70
2023/01/26 04:39:00;;;;;;;;;6.50;5.75;;;;;4.69;77.53;101084.75;5016265;28;45563;-70
2023/01/26 04:41:28;;;;;;;;;11.00;8.00;;;;;4.52;77.24;101065.63;5017019;28;45455;-71
2023/01/26 04:43:54;;;;;;;;;7.00;7.00;;;;;4.55;77.16;101086.50;5017177;28;45462;-70
2023/01/26 04:46:20;;;;;;;;;10.50;9.25;;;;;4.50;77.84;101076.69;5016943;28;45392;-71
2023/01/26 04:48:46;;;;;;;;;12.75;11.50;;;;;4.55;78.07;101078.72;5016646;28;45701;-69
2023/01/26 04:51:16;;;;;;;;;10.00;9.25;;;;;4.54;77.70;101084.72;5016330;28;45359;-70
2023/01/26 04:53:42;;;;;;;;;10.25;9.25;;;;;4.54;77.87;101074.38;5017238;28;45415;-70
2023/01/26 04:56:30;;;;;;;;;13.00;10.00;;;;;4.60;78.14;101073.88;5016712;28;46140;-70
2023/01/26 04:58:58;;;;;;;;;13.50;11.25;;;;;4.53;77.77;101058.75;5000587;28;45399;-71
2023/01/26 05:01:24;;;;;;;;;5.75;4.50;;;;;4.63;77.29;101073.16;5018184;28;45399;-70
2023/01/26 05:03:49;;;;;;;;;9.75;9.00;;;;;4.65;77.97;101079.31;5018041;28;45513;-70
2023/01/26 05:06:15;;;;;;;;;9.00;5.50;;;;;4.61;77.79;101074.75;5016494;28;45477;-71
2023/01/26 05:08:41;;;;;;;;;8.50;7.00;;;;;4.63;77.51;101071.44;5015929;28;45533;-70
2023/01/26 05:11:06;;;;;;;;;6.00;5.25;;;;;4.65;77.45;101097.44;5016263;28;46044;-70
2023/01/26 05:13:34;;;;;;;;;10.00;7.00;;;;;4.64;77.51;101062.03;5016859;28;45444;-69
2023/01/26 05:16:01;;;;;;;;;4.50;4.50;;;;;4.67;77.33;101064.78;5016795;28;45629;-70
2023/01/26 05:18:27;;;;;;;;;5.75;5.00;;;;;4.59;77.59;101061.72;5016409;28;45361;-68
2023/01/26 05:20:53;;;;;;;;;6.00;5.00;;;;;4.62;77.77;101063.63;5016419;28;45519;-70
2023/01/26 05:23:18;;;;;;;;;8.00;6.50;;;;;4.52;77.59;101037.16;5016462;28;45347;-70
2023/01/26 05:25:44;;;;;;;;;5.00;5.00;;;;;4.47;78.06;101032.50;5016329;28;45803;-70
2023/01/26 05:28:09;;;;;;;;;8.00;6.00;;;;;4.64;77.43;101055.13;5016089;28;45264;-70
2023/01/26 05:30:35;;;;;;;;;6.25;6.00;;;;;4.46;77.46;101012.63;5016345;28;45435;-70
2023/01/26 05:33:05;;;;;;;;;6.00;4.50;;;;;4.69;77.24;101053.72;5016116;28;45390;-70
2023/01/26 05:35:30;;;;;;;;;8.50;8.00;;;;;4.69;77.16;101048.53;5016746;28;45286;-70
2023/01/26 05:37:56;;;;;;;;;14.75;13.75;;;;;4.71;77.69;101053.81;5015308;28;45446;-70
2023/01/26 05:40:22;;;;;;;;;9.75;7.75;;;;;4.75;77.40;101048.03;5016738;28;45386;-71
2023/01/26 05:42:47;;;;;;;;;7.00;7.00;;;;;4.77;77.60;101049.00;5015927;28;45717;-70
2023/01/26 05:45:13;;;;;;;;;7.00;7.00;;;;;4.78;77.45;101040.47;5016105;28;45445;-70
2023/01/26 05:47:39;;;;;;;;;11.75;8.00;;;;;4.80;77.63;101045.75;5016309;28;45368;-70
2023/01/26 05:50:05;;;;;;;;;12.25;6.50;;;;;4.54;77.23;101016.56;5028089;28;45517;-70
2023/01/26 05:52:31;;;;;;;;;10.00;7.00;;;;;4.55;77.62;101008.88;5013981;28;45462;-71
2023/01/26 05:54:57;;;;;;;;;26.00;23.00;;;;;4.82;77.11;101045.03;5015291;28;46063;-70
2023/01/26 05:57:22;;;;;;;;;15.25;11.00;;;;;4.83;77.24;101041.63;5015282;28;45303;-70
2023/01/26 05:59:48;;;;;;;;;9.25;9.00;;;;;4.60;77.05;101004.00;5016032;28;46205;-69
2023/01/26 06:02:13;;;;;;;;;6.25;5.25;;;;;4.86;77.29;101051.28;5014119;28;45504;-70
2023/01/26 06:04:39;;;;;;;;;7.00;6.75;;;;;4.87;77.00;101051.34;5016050;28;45265;-69
2023/01/26 06:07:05;;;;;;;;;15.75;13.75;;;;;4.87;77.71;101046.19;5015290;28;45440;-70
2023/01/26 06:09:30;;;;;;;;;13.50;10.25;;;;;4.86;77.19;101036.63;5016414;28;45514;-70
2023/01/26 06:11:56;;;;;;;;;9.25;9.00;;;;;4.91;77.20;101042.97;5016269;28;45570;-69
2023/01/26 06:14:22;;;;;;;;;37.50;29.50;;;;;4.90;76.97;101042.91;5016396;28;45958;-70
2023/01/26 06:16:47;;;;;;;;;12.75;11.50;;;;;4.89;77.39;101052.34;5015257;28;45245;-69
2023/01/26 06:19:13;;;;;;;;;28.00;25.50;;;;;4.88;77.28;101053.16;5015819;28;45209;-70
2023/01/26 06:21:38;;;;;;;;;22.25;18.50;;;;;4.85;77.70;101049.47;5015975;28;45405;-70
2023/01/26 06:24:04;;;;;;;;;22.75;19.00;;;;;4.84;77.70;101048.59;5016241;28;46281;-70
2023/01/26 06:26:30;;;;;;;;;23.00;19.75;;;;;4.82;77.56;101045.03;5014156;28;45465;-70
2023/01/26 06:28:56;;;;;;;;;22.50;16.25;;;;;4.72;77.70;101033.22;5014698;28;45457;-70
2023/01/26 06:31:28;;;;;;;;;24.00;19.50;;;;;4.84;78.03;101051.19;5014951;28;45467;-71
2023/01/26 06:33:54;;;;;;;;;19.75;15.00;;;;;4.83;77.83;101054.56;5012325;28;45541;-69
2023/01/26 06:36:19;;;;;;;;;14.50;14.50;;;;;4.58;77.97;101014.25;5013611;28;45411;-68
2023/01/26 06:38:47;;;;;;;;;31.25;30.25;;;;;4.84;77.71;101043.41;5014179;28;45767;-69
2023/01/26 06:41:12;;;;;;;;;17.50;14.75;;;;;4.79;78.06;101034.47;5014863;28;45320;-70
2023/01/26 06:43:38;;;;;;;;;76.25;58.75;;;;;4.87;77.64;101043.59;5014616;28;45784;-68
2023/01/26 06:46:04;;;;;;;;;79.75;60.25;;;;;4.87;77.28;101035.81;5014329;28;45388;-68
2023/01/26 06:48:33;;;;;;;;;93.33;71.00;;;;;4.85;76.78;101027.06;5012007;28;45624;-70
2023/01/26 06:51:17;;;;;;;;;67.25;50.75;;;;;4.84;76.96;101021.81;5013762;28;45403;-70
2023/01/26 06:53:47;;;;;;;;;60.50;48.25;;;;;4.83;77.34;101015.72;5013777;28;46087;-70
2023/01/26 06:56:13;;;;;;;;;43.25;35.75;;;;;4.82;77.09;101005.31;5012209;28;45603;-70
2023/01/26 06:58:39;;;;;;;;;36.75;34.25;;;;;4.81;77.16;101012.16;5012969;28;45549;-68
2023/01/26 07:01:04;;;;;;;;;38.75;34.25;;;;;4.83;77.67;101013.13;5015029;28;45160;-68
2023/01/26 07:03:30;;;;;;;;;41.25;39.25;;;;;4.85;77.47;101006.34;5011210;28;46159;-68
2023/01/26 07:05:56;;;;;;;;;10.00;9.00;;;;;4.76;78.54;101013.59;5018187;28;45851;-69
2023/01/26 07:08:22;;;;;;;;;7.00;6.25;;;;;4.73;77.97;101011.69;5017325;28;45589;-69
2023/01/26 07:10:48;;;;;;;;;9.75;7.00;;;;;4.65;78.25;101012.03;5018103;28;45495;-69
2023/01/26 07:13:14;;;;;;;;;9.00;7.00;;;;;4.53;78.98;101010.47;5017182;28;46283;-69
2023/01/26 07:15:40;;;;;;;;;9.00;7.00;;;;;4.55;78.90;101002.81;5016757;28;45619;-68
2023/01/26 07:18:05;;;;;;;;;13.25;7.00;;;;;4.52;78.24;101000.94;5014987;28;45379;-69
2023/01/26 07:20:31;;;;;;;;;10.25;7.00;;;;;4.54;78.11;100995.88;5016116;28;45486;-67
2023/01/26 07:22:59;;;;;;;;;11.00;10.50;;;;;4.53;78.74;100999.22;5016478;28;46109;-68
2023/01/26 07:25:25;;;;;;;;;13.75;11.75;;;;;4.53;78.65;100996.66;5015595;28;45336;-69
2023/01/26 07:27:58;;;;;;;;;13.75;13.00;;;;;4.52;79.22;100990.59;5016884;28;45416;-69
2023/01/26 07:30:23;;;;;;;;;11.25;11.00;;;;;4.55;79.21;100987.28;5016690;28;45524;-69
2023/01/26 07:32:49;;;;;;;;;11.00;10.75;;;;;4.57;79.07;100989.16;5015846;28;46149;-70
2023/01/26 07:35:15;;;;;;;;;12.75;12.00;;;;;4.46;78.33;100974.69;5018922;28;45519;-68
2023/01/26 07:37:40;;;;;;;;;13.00;10.00;;;;;4.49;78.79;100982.63;5016635;28;45478;-69
2023/01/26 07:40:06;;;;;;;;;18.50;10.50;;;;;4.42;79.57;100975.31;5015806;28;45462;-68
2023/01/26 07:42:32;;;;;;;;;16.75;11.25;;;;;4.43;79.30;100982.25;5015895;28;46088;-69
2023/01/26 07:44:58;;;;;;;;;13.00;11.25;;;;;4.40;79.45;100995.00;5015514;28;45662;-68
2023/01/26 07:47:24;;;;;;;;;9.75;8.50;;;;;4.38;78.77;100983.69;5016190;28;45878;-68
2023/01/26 07:49:50;;;;;;;;;13.00;11.25;;;;;4.38;78.74;100965.56;5013478;28;45408;-68
2023/01/26 07:52:16;;;;;;;;;47.00;40.50;;;;;4.16;78.95;100925.47;5016138;28;45439;-69
2023/01/26 07:54:41;;;;;;;;;25.00;23.25;;;;;4.42;79.67;100959.78;5015791;28;45439;-69
2023/01/26 07:57:07;;;;;;;;;17.50;14.00;;;;;4.50;79.35;100968.03;5016107;28;45478;-69
2023/01/26 07:59:33;;;;;;;;;51.00;42.00;;;;;4.49;79.59;100959.34;5013496;28;46104;-69
2023/01/26 08:01:58;;;;;;;;;34.75;26.50;;;;;4.46;79.48;100955.69;5015968;28;45893;-69
2023/01/26 08:04:24;;;;;;;;;28.50;23.00;;;;;4.48;79.79;100959.28;5015758;28;45430;-69
2023/01/26 08:06:52;;;;;;;;;23.25;20.75;;;;;4.57;80.06;100958.09;5016331;28;45419;-69
2023/01/26 08:09:18;;;;;;;;;40.75;37.50;;;;;4.61;79.46;100953.13;5014748;28;45292;-69
2023/01/26 08:11:43;;;;;;;;;38.25;35.25;;;;;4.68;79.57;100957.88;5015475;28;45608;-68
2023/01/26 08:14:09;;;;;;;;;26.50;22.50;;;;;4.77;78.98;100958.41;5015661;28;45561;-68
2023/01/26 08:16:35;;;;;;;;;23.75;21.75;;;;;4.78;79.22;100949.88;5015149;28;45446;-68
2023/01/26 08:19:01;;;;;;;;;26.25;22.00;;;;;3.93;78.96;100801.66;5015135;28;45417;-70
2023/01/26 08:21:27;;;;;;;;;58.00;47.75;;;;;4.89;79.06;100960.84;5012143;28;46302;-70
2023/01/26 08:23:54;;;;;;;;;48.00;39.75;;;;;4.97;78.96;100949.25;5015421;28;45273;-69
2023/01/26 08:26:20;;;;;;;;;27.25;22.00;;;;;5.11;78.91;100955.22;5015593;28;45467;-70
2023/01/26 08:28:46;;;;;;;;;42.25;30.50;;;;;5.16;78.51;100943.47;5013375;28;45339;-68
2023/01/26 08:31:17;;;;;;;;;36.75;35.75;;;;;5.17;77.79;100955.59;5014421;28;46116;-69
2023/01/26 08:33:43;;;;;;;;;24.50;22.25;;;;;5.16;78.15;100953.81;5011437;28;45396;-70
2023/01/26 08:36:13;;;;;;;;;26.50;22.75;;;;;5.20;78.26;100945.41;5015141;28;45300;-70
2023/01/26 08:38:38;;;;;;;;;20.25;18.75;;;;;5.28;78.13;100931.22;5013968;28;46098;-69
2023/01/26 08:41:05;;;;;;;;;24.00;22.50;;;;;5.48;77.30;100937.53;5014285;28;45520;-68
2023/01/26 08:43:31;;;;;;;;;26.00;22.50;;;;;5.62;77.04;100947.78;5014708;28;45563;-71
2023/01/26 08:45:57;;;;;;;;;33.50;26.50;;;;;5.59;76.96;100951.09;5014923;28;46432;-70
2023/01/26 08:48:23;;;;;;;;;19.00;18.00;;;;;5.51;77.25;100941.97;5015405;28;45436;-70
2023/01/26 08:50:56;;;;;;;;;19.75;16.25;;;;;5.33;77.00;100911.66;5013129;28;45621;-69
2023/01/26 08:53:22;;;;;;;;;16.75;15.00;;;;;5.57;76.92;100944.91;5012882;28;45466;-69
2023/01/26 08:55:48;;;;;;;;;23.25;20.25;;;;;5.31;76.58;100892.53;5014460;28;45509;-73
2023/01/26 08:58:14;;;;;;;;;31.25;26.75;;;;;5.57;76.55;100922.50;5014643;28;45538;-69
2023/01/26 09:00:39;;;;;;;;;39.75;32.00;;;;;5.75;76.94;100933.00;5014028;28;45575;-69
2023/01/26 09:03:05;;;;;;;;;33.00;30.25;;;;;5.95;75.79;100938.44;5012884;28;45431;-69
2023/01/26 09:05:33;;;;;;;;;52.00;42.00;;;;;6.04;75.98;100940.63;5014756;28;45657;-70
2023/01/26 09:07:59;;;;;;;;;54.75;44.50;;;;;6.13;75.98;100936.84;5014075;28;45580;-70
2023/01/26 09:10:24;;;;;;;;;48.75;40.50;;;;;6.13;75.60;100925.56;5012432;28;45918;-69
2023/01/26 09:12:50;;;;;;;;;46.00;37.75;;;;;6.35;75.77;100935.41;5011038;28;45570;-69
2023/01/26 09:15:16;;;;;;;;;47.50;38.25;;;;;6.50;75.38;100937.88;5014505;28;45433;-70
2023/01/26 09:17:42;;;;;;;;;57.25;44.50;;;;;6.53;75.21;100925.97;5013603;28;45463;-70
2023/01/26 09:20:09;;;;;;;;;67.75;53.25;;;;;6.51;74.53;100911.13;5013178;28;45680;-70
2023/01/26 09:22:35;;;;;;;;;57.25;47.50;;;;;6.69;74.34;100931.97;5012137;28;45447;-69
2023/01/26 09:25:00;;;;;;;;;49.75;41.75;;;;;6.72;73.63;100935.59;5014595;28;45538;-68
2023/01/26 09:27:26;;;;;;;;;42.50;37.25;;;;;6.82;74.42;100925.69;5012616;28;45266;-69
2023/01/26 09:29:52;;;;;;;;;42.25;37.25;;;;;7.13;74.21;100920.34;5011975;28;45448;-70
2023/01/26 09:32:18;;;;;;;;;35.50;30.25;;;;;7.63;72.83;100918.44;5013413;28;45344;-70
2023/01/26 09:34:44;;;;;;;;;25.50;23.00;;;;;7.57;71.55;100925.09;5014232;28;45308;-68
2023/01/26 09:37:10;;;;;;;;;29.50;24.50;;;;;7.51;72.52;100913.53;5012444;28;46440;-68
2023/01/26 09:39:35;;;;;;;;;22.00;19.25;;;;;7.45;71.07;100919.31;5014065;28;45517;-69
2023/01/26 09:42:34;;;;;;;;;22.25;20.00;;;;;7.33;71.38;100909.22;5011549;28;45289;-70
2023/01/26 09:45:10;;;;;;;;;24.00;20.75;;;;;7.37;71.91;100921.53;5015414;28;45489;-69
2023/01/26 09:48:25;;;;;;;;;20.50;15.75;;;;;7.37;72.43;100918.94;5015717;28;45515;-70
2023/01/26 09:51:04;;;;;;;;;25.25;22.00;;;;;7.51;72.35;100917.00;4987499;28;46200;-71
2023/01/26 09:53:46;;;;;;;;;25.00;22.50;;;;;7.41;72.57;100872.31;5011848;28;45785;-71
2023/01/26 09:56:19;;;;;;;;;26.00;22.75;;;;;7.93;71.82;100911.16;5012222;28;45339;-70
2023/01/26 09:58:58;;;;;;;;;41.00;32.50;;;;;8.07;71.50;100909.19;5007788;28;45478;-70
2023/01/26 10:01:39;;;;;;;;;45.50;36.25;;;;;8.20;71.25;100900.22;5013048;28;46418;-70
2023/01/26 10:04:38;;;;;;;;;36.25;31.00;;;;;8.39;70.74;100907.16;5010118;28;45301;-70
2023/01/26 10:07:12;;;;;;;;;35.00;31.50;;;;;8.52;70.32;100902.59;5011934;28;45490;-70
2023/01/26 10:09:40;;;;;;;;;34.75;31.25;;;;;8.66;69.97;100902.31;5011953;28;45535;-70
2023/01/26 10:12:46;;;;;;;;;39.50;36.00;;;;;8.58;69.54;100868.13;5012412;28;46329;-70
2023/01/26 10:15:30;;;;;;;;;31.00;26.75;;;;;8.79;70.01;100903.72;4943487;28;45491;-70
2023/01/26 10:17:59;;;;;;;;;34.00;30.25;;;;;8.92;69.66;100901.72;4958632;28;45656;-70
2023/01/26 10:20:31;;;;;;;;;39.00;32.00;;;;;9.08;69.76;100904.97;4994935;28;45790;-70
2023/01/26 10:23:03;;;;;;;;;34.25;28.00;;;;;9.17;68.67;100897.50;5010646;28;45558;-69
2023/01/26 10:25:38;;;;;;;;;35.25;29.00;;;;;9.22;68.91;100905.53;5012403;28;45486;-71
2023/01/26 10:28:27;;;;;;;;;29.00;26.25;;;;;9.42;69.16;100908.97;5011726;28;45454;-70
2023/01/26 10:30:52;;;;;;;;;26.25;24.75;;;;;9.26;68.31;100857.91;5006327;28;45415;-69
2023/01/26 10:33:31;;;;;;;;;22.50;22.00;;;;;9.58;67.60;100895.69;5014752;28;45943;-70
2023/01/26 10:35:58;;;;;;;;;30.00;25.75;;;;;9.70;66.89;100900.50;5029436;28;45469;-70
2023/01/26 10:38:32;;;;;;;;;36.75;31.25;;;;;9.76;67.27;100893.78;5015089;28;45522;-70
2023/01/26 10:41:03;;;;;;;;;26.50;24.00;;;;;9.84;67.50;100882.78;5018191;28;45573;-71
2023/01/26 10:43:35;;;;;;;;;39.25;34.00;;;;;9.98;66.87;100892.00;5018102;28;45435;-71
2023/01/26 10:46:02;;;;;;;;;41.00;35.50;;;;;10.09;66.86;100885.47;5018126;28;45614;-71
2023/01/26 10:48:28;;;;;;;;;46.25;37.50;;;;;10.25;66.01;100886.06;5017858;28;45489;-70
2023/01/26 10:50:54;;;;;;;;;29.75;24.75;;;;;10.39;64.58;100881.38;5016737;28;45461;-71
2023/01/26 10:53:27;;;;;;;;;34.00;25.25;;;;;10.45;65.04;100885.09;5017231;28;45510;-71
2023/01/26 10:56:12;;;;;;;;;31.50;24.75;;;;;10.55;64.54;100876.72;5017399;28;45364;-71
2023/01/26 10:58:46;;;;;;;;;32.75;31.25;;;;;10.68;64.19;100874.53;5016959;28;45381;-70
2023/01/26 11:01:15;;;;;;;;;20.50;19.75;;;;;10.75;64.18;100872.19;5016110;28;45474;-70
2023/01/26 11:03:55;;;;;;;;;20.75;17.75;;;;;10.81;62.83;100868.03;5015048;28;45466;-71
2023/01/26 11:06:27;;;;;;;;;23.75;19.25;;;;;10.80;62.32;100864.50;5015419;28;45481;-70
2023/01/26 11:08:53;;;;;;;;;25.75;22.25;;;;;10.74;63.08;100862.59;5015637;28;45543;-70
2023/01/26 11:11:28;;;;;;;;;22.75;20.50;;;;;10.72;62.04;100863.38;5016691;28;45517;-70
2023/01/26 11:14:17;;;;;;;;;33.50;30.25;;;;;10.66;63.34;100855.31;5016772;28;45469;-70
2023/01/26 11:16:50;;;;;;;;;21.25;19.00;;;;;10.64;63.69;100854.38;5015259;28;45482;-70
2023/01/26 11:19:49;;;;;;;;;27.25;23.50;;;;;10.67;64.11;100850.16;5014940;28;45617;-71
2023/01/26 11:22:29;;;;;;;;;24.00;19.75;;;;;10.82;63.45;100839.31;5016622;28;45450;-69
2023/01/26 11:25:01;;;;;;;;;19.00;16.00;;;;;11.03;62.88;100833.03;5014421;28;46595;-72
2023/01/26 11:27:55;;;;;;;;;26.25;19.25;;;;;11.04;63.06;100834.81;5012050;28;45471;-71
2023/01/26 11:30:36;;;;;;;;;22.25;18.00;;;;;11.25;62.25;100827.66;5010787;28;45581;-71
2023/01/26 11:33:33;;;;;;;;;21.25;19.50;;;;;11.37;61.23;100802.72;5016995;28;45561;-70
2023/01/26 11:36:25;;;;;;;;;29.25;25.00;;;;;11.40;60.81;100802.81;5015909;28;45971;-72
2023/01/26 11:38:59;;;;;;;;;36.75;32.75;;;;;11.62;60.80;100825.28;5011762;28;46284;-71
2023/01/26 11:41:40;;;;;;;;;39.50;31.00;;;;;11.73;60.50;100819.53;5016381;28;45568;-71
2023/01/26 11:44:28;;;;;;;;;30.75;29.50;;;;;11.78;59.81;100810.91;5015647;28;45605;-72
2023/01/26 11:47:22;;;;;;;;;30.50;27.25;;;;;11.80;59.84;100804.00;5015214;28;46159;-72
2023/01/26 11:50:25;;;;;;;;;28.75;24.00;;;;;11.74;59.81;100802.13;5016500;28;45229;-72
2023/01/26 11:53:19;;;;;;;;;26.50;23.25;;;;;11.75;59.46;100807.38;5017436;28;45324;-72
2023/01/26 11:55:56;;;;;;;;;25.75;20.75;;;;;12.02;59.71;100801.19;5017172;28;45460;-72
2023/01/26 11:58:44;;;;;;;;;19.00;19.00;;;;;12.17;58.23;100799.84;5018497;28;45542;-72
2023/01/26 12:01:27;;;;;;;;;29.50;26.00;;;;;12.11;56.42;100795.31;5019006;28;45252;-72
2023/01/26 12:03:54;;;;;;;;;23.50;21.25;;;;;12.19;57.87;100785.06;5017430;28;45450;-72
2023/01/26 12:06:26;;;;;;;;;20.75;18.50;;;;;12.40;57.31;100788.25;5017353;28;45458;-70
2023/01/26 12:09:17;;;;;;;;;37.00;31.75;;;;;12.56;57.58;100783.44;5017764;28;45375;-75
2023/01/26 12:12:32;;;;;;;;;28.25;24.00;;;;;12.45;56.79;100781.38;4991511;28;45649;-70
2023/01/26 12:15:03;;;;;;;;;23.00;20.75;;;;;12.41;56.57;100783.91;4975929;28;45622;-71
2023/01/26 12:17:57;;;;;;;;;15.50;13.75;;;;;12.34;56.45;100777.63;4977755;28;45366;-71
2023/01/26 12:20:39;;;;;;;;;25.50;23.00;;;;;12.12;56.24;100768.31;5005473;28;45468;-71